• Join FlightAware (Why Join?)
  • Login
  • US Flag 
08:35AM EDT


 

Airport Tracker/Info


-or-


 

Live Flight TrackerFlight Track Log ✈ SKW5162 ✈ 24-May-2013 ✈ KMCO - KIAH

Flight Track Log - Related Links

Times and Time Zones

All times are in EDT time to prevent confusion due to time zone crossing. See the SKW5162 flight status page for this flight to view local times or setup timezone preferences in your user account.

Time Position Orientation Groundspeed Altitude Reporting Facility
EDT Latitude Longitude Course Direction KTS MPH feet Rate Location/Type
04:16PM 28.4333 -81.3167 270° West 158 182 500  Level Orlando TRACON
04:17PM 28.5000 -81.3167 360° North 202 232 2,600 1,680 Climbing Orlando TRACON
04:18PM 28.5500 -81.3333 344° North 235 270 4,500 2,040 Climbing Orlando TRACON
04:19PM 28.4167 -81.6706 270° West  Level FlightAware Approximate
04:20PM 28.4167 -81.7942 270° West  Level FlightAware Approximate
04:20PM 28.5428 -81.4747 267° West 277 319 8,400  Level Jacksonville Center
04:21PM 28.4167 -81.9177 270° West  Level FlightAware Approximate
04:21PM 28.5353 -81.5575 264° West 272 313 10,600  Level Jacksonville Center
04:22PM 28.4167 -82.0413 270° West  Level FlightAware Approximate
04:22PM 28.5236 -81.6522 262° West 281 323 11,600  Level Jacksonville Center
04:23PM 28.5142 -81.7561 264° West 313 360 13,000 1,560 Climbing Jacksonville Center
04:24PM 28.5131 -81.8697 269° West 342 394 14,800 1,800 Climbing Jacksonville Center
04:25PM 28.5286 -81.9828 279° West 354 407 16,600 1,800 Climbing Jacksonville Center
04:26PM 28.5439 -82.1056 278° West 366 421 18,400 1,800 Climbing Jacksonville Center
04:27PM 28.5614 -82.2236 280° West 371 427 20,200 1,500 Climbing Jacksonville Center
04:28PM 28.5786 -82.3417 279° West 371 427 21,400 1,200 Climbing Jacksonville Center
04:29PM 28.5936 -82.4600 278° West 371 427 22,600 1,200 Climbing Jacksonville Center
04:30PM 28.6419 -82.5686 297° West 384 442 23,800 1,140 Climbing Jacksonville Center
04:31PM 28.7236 -82.6322 326° Northwest 365 420 24,900 1,080 Climbing Jacksonville Center
04:32PM 28.8092 -82.7078 322° Northwest 376 433 26,000 960 Climbing Jacksonville Center
04:33PM 28.8969 -82.7883 321° Northwest 391 450 26,900 900 Climbing Jacksonville Center
04:34PM 28.9847 -82.8689 321° Northwest 396 456 27,800 900 Climbing Jacksonville Center
04:35PM 29.0725 -82.9497 321° Northwest 402 463 28,700 900 Climbing Jacksonville Center
04:36PM 29.1578 -83.0328 320° Northwest 402 463 29,600 780 Climbing Jacksonville Center
04:37PM 29.2475 -83.1164 321° Northwest 402 463 30,300 660 Climbing Jacksonville Center
04:38PM 29.3331 -83.2022 319° Northwest 402 463 31,000 720 Climbing Jacksonville Center
04:39PM 29.4203 -83.2836 321° Northwest 407 468 31,800 780 Climbing Jacksonville Center
04:40PM 29.4953 -83.3769 313° West 407 468 32,600 780 Climbing Jacksonville Center
04:41PM 29.5281 -83.4989 287° West 389 448 33,400 840 Climbing Jacksonville Center
04:42PM 29.5336 -83.6253 273° West 389 448 34,300 960 Climbing Jacksonville Center
04:43PM 29.5414 -83.7472 274° West 389 448 35,400 1,020 Climbing Jacksonville Center
04:44PM 29.5489 -83.8667 274° West 389 448 36,400 900 Climbing Jacksonville Center
04:45PM 29.5561 -83.9789 274° West 378 435 37,200 600 Climbing Jacksonville Center
04:46PM 29.5636 -84.0911 274° West 365 420 37,700 360 Climbing Jacksonville Center
04:47PM 29.5708 -84.2036 274° West 360 414 38,000 120 Climbing Jacksonville Center
04:48PM 29.5800 -84.3183 275° West 360 414 38,000  Level Jacksonville Center
04:49PM 29.5869 -84.4331 274° West 360 414 38,000  Level Jacksonville Center
04:50PM 29.5981 -84.5478 276° West 365 420 38,000  Level Jacksonville Center
04:51PM 29.6028 -84.6650 273° West 371 427 38,000  Level Jacksonville Center
04:52PM 29.6117 -84.7869 275° West 371 427 38,000  Level Jacksonville Center
04:53PM 29.6181 -84.9042 274° West 377 434 38,000  Level Jacksonville Center
04:54PM 29.6267 -85.0236 275° West 377 434 38,000  Level Jacksonville Center
04:55PM 29.6328 -85.1433 273° West 377 434 38,000  Level Jacksonville Center
04:56PM 29.6433 -85.2631 276° West 377 434 38,000  Level Jacksonville Center
04:57PM 29.6472 -85.3803 272° West 377 434 38,000  Level Jacksonville Center
04:58PM 29.6553 -85.5022 274° West 377 434 38,000  Level Jacksonville Center
04:59PM 29.6611 -85.6194 273° West 382 440 38,000  Level Jacksonville Center
05:00PM 29.6689 -85.7417 274° West 382 440 38,000  Level Jacksonville Center
05:01PM 29.6786 -85.8639 275° West 387 445 38,000  Level Jacksonville Center
05:02PM 29.6842 -85.9858 273° West 387 445 38,000  Level Jacksonville Center
05:03PM 29.6917 -86.1081 274° West 387 445 38,000  Level Jacksonville Center
05:04PM 29.7008 -86.2328 275° West 387 445 38,000  Level Jacksonville Center
05:05PM 29.7078 -86.3669 273° West 387 445 38,000  Level Jacksonville Center
05:06PM 29.7128 -86.4914 273° West 387 445 38,000  Level Jacksonville Center
05:07PM 29.7197 -86.6136 274° West 387 445 38,000  Level Jacksonville Center
05:08PM 29.7261 -86.7428 273° West 392 451 38,000  Level Jacksonville Center
05:09PM 29.7328 -86.8675 274° West 392 451 38,000  Level Jacksonville Center
05:10PM 29.7364 -86.9586 273° West 397 457 38,000  Level Houston Center
05:11PM 29.7431 -87.0836 274° West 395 455 38,000  Level Houston Center
05:12PM 29.7494 -87.2364 273° West 400 460 38,000  Level Houston Center
05:13PM 29.7556 -87.3628 273° West 397 457 38,000  Level Houston Center
05:14PM 29.7619 -87.4900 273° West 400 460 38,000  Level Houston Center
05:15PM 29.7669 -87.6178 273° West 401 461 38,000  Level Houston Center
05:16PM 29.7719 -87.7622 272° West 402 463 38,000  Level Houston Center
05:17PM 29.7778 -87.8911 273° West 403 464 38,000  Level Houston Center
05:18PM 29.7839 -88.0189 273° West 402 463 38,000  Level Houston Center
05:19PM 29.7886 -88.1486 272° West 403 464 38,000  Level Houston Center
05:20PM 29.7936 -88.2781 273° West 406 467 38,000  Level Houston Center
05:21PM 29.8011 -88.4278 273° West 404 465 38,000  Level Houston Center
05:22PM 29.8042 -88.5572 272° West 405 466 38,000  Level Houston Center
05:23PM 29.8092 -88.6856 273° West 404 465 38,000  Level Houston Center
05:24PM 29.8139 -88.8153 272° West 406 467 38,000  Level Houston Center
05:25PM 29.8186 -88.9456 272° West 407 468 38,000  Level Houston Center
05:27PM 29.8231 -89.1017 272° West 407 468 38,000  Level Houston Center
05:28PM 29.8275 -89.2314 272° West 407 468 38,000  Level Houston Center
05:29PM 29.8306 -89.3622 272° West 406 467 38,000  Level Houston Center
05:30PM 29.8347 -89.4931 272° West 408 470 38,000  Level Houston Center
05:31PM 29.8389 -89.6253 272° West 412 474 38,000  Level Houston Center
05:32PM 29.8428 -89.7575 272° West 412 474 38,000  Level Houston Center
05:33PM 29.8464 -89.8919 272° West 416 479 38,000  Level Houston Center
05:34PM 29.8425 -90.0539 268° West 420 483 38,000  Level Houston Center
05:35PM 29.8211 -90.1858 259° West 416 479 38,000  Level Houston Center
05:36PM 29.8008 -90.3189 260° West 420 483 38,000  Level Houston Center
05:37PM 29.7797 -90.4514 260° West 420 483 38,000  Level Houston Center
05:38PM 29.7592 -90.5831 260° West 418 481 38,000  Level Houston Center
05:39PM 29.7397 -90.7133 260° West 416 479 38,000  Level Houston Center
05:40PM 29.7153 -90.8706 260° West 416 479 38,000  Level Houston Center
05:41PM 29.6939 -91.0003 259° West 413 475 38,000  Level Houston Center
05:42PM 29.6747 -91.1303 260° West 413 475 38,000  Level Houston Center
05:43PM 29.6528 -91.2592 259° West 413 475 38,000  Level Houston Center
05:44PM 29.6333 -91.3883 260° West 411 473 38,000  Level Houston Center
05:45PM 29.6119 -91.5183 259° West 414 476 38,000  Level Houston Center
05:46PM 29.5864 -91.6742 259° West 414 476 38,000  Level Houston Center
05:47PM 29.5650 -91.8017 259° West 414 476 38,000  Level Houston Center
05:48PM 29.5439 -91.9322 260° West 416 479 38,000 -60 Level Houston Center
05:49PM 29.5222 -92.0628 259° West 417 480 37,900  Descending Houston Center
05:50PM 29.5000 -92.1942 259° West 419 482 38,000  Climbing Houston Center
05:51PM 29.4733 -92.3514 259° West 417 480 38,000  Level Houston Center
05:52PM 29.4542 -92.4833 261° West 420 483 38,000  Level Houston Center
05:53PM 29.4611 -92.6158 273° West 419 482 38,000  Level Houston Center
05:54PM 29.4686 -92.7475 274° West 414 476 38,000  Level Houston Center
05:56PM 29.4744 -92.8814 273° West 417 480 38,000 -60 Level Houston Center
05:57PM 29.4808 -93.0158 273° West 420 483 37,900 -1,560 Descending Houston Center
05:58PM 29.4872 -93.1531 273° West 429 494 34,800 -3,300 Descending Houston Center
05:59PM 29.4956 -93.3192 273° West 433 498 31,200 -3,240 Descending Houston Center
06:00PM 29.5008 -93.4614 272° West 443 510 28,200 -2,940 Descending Houston Center
06:01PM 29.5058 -93.6058 272° West 450 518 25,200 -3,000 Descending Houston Center
06:02PM 29.5119 -93.7469 273° West 444 511 22,100 -3,000 Descending Houston Center
06:03PM 29.5164 -93.8828 272° West 429 494 19,100 -3,060 Descending Houston Center
06:03PM 29.5194 -93.9889 272° West 413 475 16,900 -2,760 Descending Houston Center
06:04PM 29.5217 -94.0161 275° West 419 482 16,300 -2,520 Descending Houston Center
06:05PM 29.5267 -94.1442 273° West 404 465 13,800 -1,740 Descending Houston Center
06:06PM 29.5294 -94.2761 271° West 387 445 13,000 -540 Descending Houston Center
06:07PM 29.5511 -94.3886 283° West 360 414 12,800 -960 Descending Houston Center
06:08PM 29.6042 -94.5081 297° West 356 410 10,900 -1,380 Descending Houston Center
06:09PM 29.6411 -94.5983 295° West 330 380 10,000 -1,260 Descending Houston Center
06:10PM 29.6767 -94.6803 297° West 294 338 8,600 -1,560 Descending Houston Center
06:11PM 29.7117 -94.7625 296° West 294 338 7,000 -1,320 Descending Houston Center
06:12PM 29.7472 -94.8472 296° West 296 341 6,000 -540 Descending Houston Center
06:13PM 29.7853 -94.9386 296° West 296 341 6,000  Level Houston Center
06:13PM 29.7881 -94.9411 322° Northwest 296 341 6,000  Level Houston Center
06:14PM 29.8200 -95.0161 296° West 299 344 6,000  Level Houston Center
06:14PM 29.8306 -95.0431 294° West 298 343 6,000  Level Houston Center
06:15PM 29.8581 -95.1078 296° West 293 337 6,000  Level Houston Center
06:15PM 29.8664 -95.1261 298° West 294 338 6,000 -120 Level Houston Center
06:16PM 29.8908 -95.1906 294° West 288 331 5,900  Descending Houston Center
06:16PM 29.8989 -95.2089 297° West 289 333 6,000 60 Climbing Houston Center
06:17PM 29.8992 -95.2789 270° West 273 314 6,000  Level Houston Center
06:17PM 29.9003 -95.2958 274° West 276 318 6,000  Level Houston Center
06:18PM 29.8986 -95.3656 268° West 237 273 6,000  Level Houston Center
06:18PM 29.9006 -95.3733 286° West 251 289 6,000  Level Houston Center
06:19PM 29.8994 -95.4450 269° West 245 282 6,000 -120 Level Houston Center
06:19PM 29.9008 -95.4672 274° West 247 284 5,900 -900 Descending Houston Center
06:20PM 29.9003 -95.5222 269° West 243 280 5,100 -1,080 Descending Houston Center
06:20PM 29.9022 -95.5433 276° West 241 277 4,800 -1,200 Descending Houston Center
06:21PM 29.9383 -95.5706 327° Northwest 245 282 3,900 -1,260 Descending Houston Center
06:21PM 29.9575 -95.5675 North 246 283 3,500 -900 Descending Houston Center
06:22PM 29.9800 -95.5222 60° Northeast 225 259 3,000 -720 Descending Houston Center
06:22PM 29.9883 -95.5047 61° Northeast 231 266 2,800 -600 Descending Houston Center